Time;durP1;ratioP1;P1;durP2;ratioP2;P2;SDS_P1;SDS_P2;PMS_P1;PMS_P2;Temp;Humidity;BMP_temperature;BMP_pressure;BME280_temperature;BME280_humidity;BME280_pressure;Samples;Min_cycle;Max_cycle;Signal;HPM_P1;HPM_P2
2022/10/16 00:02:10;;;;;;;7.65;4.78;;;;;;;4.72;61.31;101261.75;5012571;28;20444;-80
2022/10/16 00:04:36;;;;;;;8.45;4.65;;;;;;;4.66;61.14;101258.09;5029894;28;20048;-79
2022/10/16 00:07:02;;;;;;;8.55;4.82;;;;;;;4.72;61.27;101275.53;5012664;28;20033;-79
2022/10/16 00:09:28;;;;;;;9.13;4.85;;;;;;;4.59;61.88;101255.22;5030122;28;20049;-80
2022/10/16 00:11:54;;;;;;;8.95;4.93;;;;;;;4.70;61.75;101277.19;5025589;28;20417;-80
2022/10/16 00:14:20;;;;;;;9.20;5.05;;;;;;;4.63;61.79;101267.44;5043557;28;20033;-79
2022/10/16 00:16:46;;;;;;;7.95;5.20;;;;;;;4.55;61.31;101258.50;5028738;28;20040;-79
2022/10/16 00:19:12;;;;;;;9.07;5.10;;;;;;;4.68;61.90;101277.09;5012563;28;20045;-79
2022/10/16 00:21:38;;;;;;;8.95;5.10;;;;;;;4.58;61.71;101261.22;5011485;28;20131;-80
2022/10/16 00:24:23;;;;;;;9.00;5.28;;;;;;;4.56;61.31;101263.75;5043686;28;20043;-80
2022/10/16 00:26:50;;;;;;;8.05;4.82;;;;;;;4.65;61.41;101282.13;4995356;28;20040;-79
2022/10/16 00:29:16;;;;;;;7.03;4.50;;;;;;;4.41;61.73;101248.53;5040315;28;20072;-80
2022/10/16 00:31:42;;;;;;;10.82;5.18;;;;;;;4.59;62.21;101283.59;5024797;28;20064;-80
2022/10/16 00:34:08;;;;;;;8.45;5.10;;;;;;;4.59;61.69;101286.19;5012097;28;20040;-79
2022/10/16 00:36:34;;;;;;;9.90;4.72;;;;;;;4.40;61.46;101263.97;5023881;28;20032;-79
2022/10/16 00:39:01;;;;;;;7.78;4.88;;;;;;;4.35;61.79;101253.44;5012478;28;20064;-78
2022/10/16 00:41:28;;;;;;;9.98;5.32;;;;;;;4.56;61.70;101288.63;5041730;28;20090;-78
2022/10/16 00:44:00;;;;;;;11.30;5.95;;;;;;;4.52;62.37;101280.78;5028594;28;20040;-80
2022/10/16 00:46:39;;;;;;;11.70;4.90;;;;;;;4.46;61.56;101277.97;5012589;28;20044;-79
2022/10/16 00:49:11;;;;;;;9.93;5.22;;;;;;;4.43;61.75;101283.00;5042223;28;20041;-78
2022/10/16 00:51:45;;;;;;;8.88;4.75;;;;;;;4.38;61.70;101276.78;5025964;28;20086;-81
2022/10/16 00:54:18;;;;;;;9.18;5.18;;;;;;;4.19;61.73;101252.84;5042185;28;20132;-80
2022/10/16 00:56:46;;;;;;;9.40;5.00;;;;;;;4.40;61.59;101293.19;5028834;28;20100;-79
2022/10/16 00:59:37;;;;;;;7.25;4.53;;;;;;;4.39;62.47;101295.72;5032350;28;20139;-80
2022/10/16 01:02:05;;;;;;;7.57;4.35;;;;;;;4.37;61.98;101293.06;5048544;28;20128;-79
2022/10/16 01:04:38;;;;;;;7.80;5.30;;;;;;;4.37;61.97;101303.38;5014300;28;20493;-78
2022/10/16 01:07:14;;;;;;;9.45;4.68;;;;;;;4.33;62.12;101302.38;5031133;28;20037;-80
2022/10/16 01:10:14;;;;;;;9.60;5.20;;;;;;;4.13;62.39;101262.03;5042358;28;20385;-81
2022/10/16 01:13:09;;;;;;;7.45;4.60;;;;;;;4.28;62.16;101300.44;5017137;28;20140;-80
2022/10/16 01:15:38;;;;;;;7.95;4.90;;;;;;;4.29;62.14;101299.63;5026077;28;20080;-79
2022/10/16 01:18:11;;;;;;;8.57;4.68;;;;;;;4.27;62.43;101303.81;5040697;28;20045;-79
2022/10/16 01:20:42;;;;;;;7.78;5.00;;;;;;;4.27;62.46;101303.81;5043915;28;20123;-79
2022/10/16 01:23:45;;;;;;;9.75;4.80;;;;;;;4.25;62.38;101308.91;5042788;28;20102;-78
2022/10/16 01:26:20;;;;;;;6.50;4.43;;;;;;;4.22;62.23;101303.63;5012117;28;20041;-79
2022/10/16 01:29:00;;;;;;;10.07;5.03;;;;;;;4.18;62.09;101306.91;5043194;28;20048;-80
2022/10/16 01:31:31;;;;;;;7.68;4.45;;;;;;;4.09;62.46;101301.34;5040863;28;20442;-80
2022/10/16 01:34:12;;;;;;;12.02;4.30;;;;;;;4.09;62.13;101298.78;5042469;28;20043;-81
2022/10/16 01:36:51;;;;;;;8.02;5.05;;;;;;;4.21;62.39;101319.88;5022263;28;20049;-80
2022/10/16 01:39:21;;;;;;;9.15;4.93;;;;;;;4.11;62.63;101303.16;5023508;28;20049;-79
2022/10/16 01:41:56;;;;;;;8.18;4.00;;;;;;;4.20;62.45;101321.59;5041056;28;20056;-80
2022/10/16 01:44:28;;;;;;;8.40;4.82;;;;;;;4.04;62.59;101298.59;5010012;28;20041;-80
2022/10/16 01:46:55;;;;;;;6.63;4.53;;;;;;;4.17;62.73;101325.75;5027767;28;20042;-81
2022/10/16 01:49:26;;;;;;;7.45;4.10;;;;;;;4.09;62.75;101306.50;5021626;28;20128;-79
2022/10/16 01:51:55;;;;;;;8.30;4.60;;;;;;;3.98;62.07;101300.91;5020600;28;20068;-79
2022/10/16 01:54:25;;;;;;;7.63;4.53;;;;;;;4.01;62.17;101313.94;5025174;28;20041;-80
2022/10/16 01:56:56;;;;;;;8.50;4.05;;;;;;;4.00;62.65;101310.44;5026772;28;20087;-79
2022/10/16 01:59:25;;;;;;;7.20;4.65;;;;;;;3.91;62.53;101308.38;5041046;28;20075;-80
2022/10/16 02:02:01;;;;;;;8.23;4.97;;;;;;;3.82;62.16;101296.78;5030944;28;20045;-81
2022/10/16 02:04:34;;;;;;;6.55;4.65;;;;;;;3.84;62.67;101302.91;5045384;28;20045;-78
2022/10/16 02:07:00;;;;;;;7.78;4.50;;;;;;;3.99;62.76;101328.44;5045417;28;20071;-79
2022/10/16 02:09:27;;;;;;;9.27;4.90;;;;;;;3.82;62.77;101299.38;5014330;28;20519;-79
2022/10/16 02:11:56;;;;;;;9.38;4.63;;;;;;;3.91;62.82;101315.22;5022622;28;20041;-79
2022/10/16 02:14:24;;;;;;;9.32;4.60;;;;;;;3.99;62.36;101331.00;5025402;28;20102;-79
2022/10/16 02:16:51;;;;;;;8.88;5.07;;;;;;;3.70;63.20;101281.69;5044203;28;20076;-79
2022/10/16 02:19:19;;;;;;;8.70;4.50;;;;;;;3.88;62.98;101318.53;5044048;28;20044;-80
2022/10/16 02:21:53;;;;;;;7.13;4.60;;;;;;;3.82;62.45;101309.69;5044952;28;20576;-79
2022/10/16 02:24:38;;;;;;;9.30;4.38;;;;;;;3.95;62.73;101329.09;5058953;28;20048;-80
2022/10/16 02:27:10;;;;;;;6.20;3.80;;;;;;;3.81;63.42;101306.22;5030771;28;20112;-78
2022/10/16 02:29:44;;;;;;;5.75;4.03;;;;;;;3.86;63.32;101325.31;4997625;28;20041;-78
2022/10/16 02:32:15;;;;;;;8.45;4.20;;;;;;;3.87;62.77;101324.50;5026104;28;20048;-79
2022/10/16 02:34:41;;;;;;;8.07;4.10;;;;;;;3.88;63.06;101334.00;4997577;28;20037;-79
2022/10/16 02:37:08;;;;;;;9.40;4.25;;;;;;;3.89;63.63;101340.03;5010138;28;20556;-80
2022/10/16 02:39:34;;;;;;;8.27;4.40;;;;;;;3.70;62.86;101307.44;5033671;28;20049;-79
2022/10/16 02:42:01;;;;;;;8.88;4.20;;;;;;;3.88;62.77;101334.00;5031468;28;20079;-80
2022/10/16 02:44:27;;;;;;;6.78;4.05;;;;;;;3.80;63.23;101329.31;4998940;28;20040;-79
2022/10/16 02:46:53;;;;;;;7.43;4.15;;;;;;;3.87;63.39;101336.50;5012451;28;20048;-80
2022/10/16 02:49:19;;;;;;;7.50;3.88;;;;;;;3.86;63.56;101337.31;5032978;28;20138;-81
2022/10/16 02:51:45;;;;;;;13.20;4.38;;;;;;;3.64;63.70;101299.47;5048452;28;20041;-79
2022/10/16 02:54:12;;;;;;;7.40;3.80;;;;;;;3.73;63.53;101326.50;5036920;28;20047;-81
2022/10/16 02:56:39;;;;;;;9.23;4.13;;;;;;;3.77;63.41;101330.09;5028734;28;20404;-80
2022/10/16 02:59:05;;;;;;;10.13;3.97;;;;;;;3.59;63.08;101307.88;5027827;28;20044;-80
2022/10/16 03:01:31;;;;;;;5.45;4.00;;;;;;;3.76;63.36;101344.63;5014883;28;20072;-79
2022/10/16 03:04:00;;;;;;;6.97;4.07;;;;;;;3.79;63.42;101346.50;5045302;28;20207;-80
2022/10/16 03:06:25;;;;;;;7.13;3.58;;;;;;;3.61;63.32;101319.13;5045360;28;20128;-79
2022/10/16 03:08:51;;;;;;;5.53;3.80;;;;;;;3.66;63.42;101321.91;5013536;28;20103;-80
2022/10/16 03:11:17;;;;;;;6.22;3.78;;;;;;;3.66;62.97;101329.63;5026383;28;20583;-79
2022/10/16 03:13:43;;;;;;;6.25;3.40;;;;;;;3.59;63.31;101315.59;5014148;28;20433;-80
2022/10/16 03:16:09;;;;;;;6.57;3.83;;;;;;;3.66;62.90;101331.28;5013992;28;20064;-79
2022/10/16 03:18:35;;;;;;;8.38;3.72;;;;;;;3.67;63.81;101338.22;5025501;28;20076;-78
2022/10/16 03:21:01;;;;;;;10.43;4.35;;;;;;;3.79;63.19;101359.38;5024909;28;20504;-80
2022/10/16 03:23:28;;;;;;;5.90;3.83;;;;;;;3.66;63.51;101341.59;5042353;28;20059;-79
2022/10/16 03:25:57;;;;;;;7.45;3.97;;;;;;;3.69;63.02;101349.47;5025012;28;20566;-80
2022/10/16 03:28:24;;;;;;;5.43;3.97;;;;;;;3.71;63.57;101351.31;5024652;28;20048;-81
2022/10/16 03:30:50;;;;;;;9.90;4.35;;;;;;;3.74;63.58;101363.41;5026986;28;20602;-78
2022/10/16 03:33:17;;;;;;;10.48;4.20;;;;;;;3.67;63.40;101358.81;5015487;28;20052;-80
2022/10/16 03:35:43;;;;;;;9.43;4.13;;;;;;;3.72;63.18;101375.34;5024848;28;20412;-80
2022/10/16 03:38:09;;;;;;;8.20;3.92;;;;;;;3.71;63.27;101366.75;5047674;28;20056;-80
2022/10/16 03:40:35;;;;;;;6.35;3.88;;;;;;;3.52;63.60;101336.72;5021363;28;20037;-79
2022/10/16 03:43:01;;;;;;;9.23;4.10;;;;;;;3.64;63.48;101359.56;4996134;28;20048;-80
2022/10/16 03:45:27;;;;;;;10.70;4.95;;;;;;;3.55;63.25;101356.56;5041302;28;20120;-79
2022/10/16 03:47:53;;;;;;;8.38;4.20;;;;;;;3.55;63.71;101372.91;5025299;28;20067;-81
2022/10/16 03:50:19;;;;;;;6.60;4.22;;;;;;;3.60;63.59;101374.00;5009993;28;20049;-80
2022/10/16 03:52:45;;;;;;;8.48;4.32;;;;;;;3.43;63.45;101338.88;5013312;28;20041;-80
2022/10/16 03:55:11;;;;;;;7.88;4.13;;;;;;;3.42;63.63;101337.16;5012294;28;20405;-79
2022/10/16 03:57:38;;;;;;;7.78;4.70;;;;;;;3.53;63.84;101348.78;5038209;28;20045;-80
2022/10/16 04:00:06;;;;;;;10.32;5.15;;;;;;;3.66;63.96;101370.81;5014526;28;20040;-80
2022/10/16 04:02:38;;;;;;;7.45;4.93;;;;;;;3.70;63.69;101372.72;5020046;28;20037;-80
2022/10/16 04:05:04;;;;;;;7.82;4.35;;;;;;;3.34;63.64;101303.31;5012109;28;20068;-80
2022/10/16 04:07:30;;;;;;;7.90;4.70;;;;;;;3.57;63.61;101348.13;5044234;28;20102;-81
2022/10/16 04:09:58;;;;;;;7.57;4.55;;;;;;;3.67;63.69;101359.69;5029362;28;20053;-79
2022/10/16 04:12:25;;;;;;;12.00;4.88;;;;;;;3.78;63.51;101357.59;5012809;28;20123;-80
2022/10/16 04:14:52;;;;;;;9.18;4.93;;;;;;;4.15;63.54;101366.03;5024377;28;20041;-79
2022/10/16 04:17:17;;;;;;;8.30;4.72;;;;;;;4.27;63.33;101338.19;5025289;28;20469;-81
2022/10/16 04:19:45;;;;;;;8.85;4.72;;;;;;;4.76;63.67;101344.44;5025747;28;20516;-79
2022/10/16 04:22:11;;;;;;;7.97;4.68;;;;;;;5.35;62.48;101367.34;5022736;28;20095;-79
2022/10/16 04:24:40;;;;;;;10.55;4.93;;;;;;;5.78;62.37;101346.50;5023797;28;20093;-79
2022/10/16 04:27:08;;;;;;;8.70;4.85;;;;;;;6.25;61.61;101334.38;5043186;28;20056;-80
2022/10/16 04:29:37;;;;;;;10.13;4.15;;;;;;;6.96;60.80;101355.56;5011755;28;20044;-79
2022/10/16 04:32:03;;;;;;;8.40;4.55;;;;;;;7.59;59.86;101361.72;5023977;28;20539;-80
2022/10/16 04:34:31;;;;;;;9.60;4.40;;;;;;;8.12;58.98;101361.44;5014211;28;20048;-79
2022/10/16 04:37:32;;;;;;;7.65;4.45;;;;;;;8.43;57.71;101324.19;5026431;28;20044;-81
2022/10/16 04:39:58;;;;;;;7.38;4.75;;;;;;;9.19;57.12;101358.78;5042009;28;20049;-80
2022/10/16 04:42:30;;;;;;;13.07;4.80;;;;;;;9.80;55.97;101353.97;5011866;28;20408;-81
2022/10/16 04:44:59;;;;;;;8.23;5.30;;;;;;;10.16;54.87;101336.41;5029838;28;20045;-82
2022/10/16 04:47:25;;;;;;;6.88;4.63;;;;;;;10.94;53.86;101355.88;5025275;28;20043;-80
2022/10/16 04:50:20;;;;;;;6.65;4.60;;;;;;;11.51;52.42;101314.91;5016358;28;20481;-81
2022/10/16 04:53:00;;;;;;;8.85;4.88;;;;;;;12.09;50.38;101337.31;5010721;28;20037;-80
2022/10/16 04:55:26;;;;;;;7.82;4.68;;;;;;;12.63;49.92;101324.69;5045101;28;20052;-80
2022/10/16 04:57:52;;;;;;;8.60;4.72;;;;;;;13.20;47.55;101326.72;5043397;28;20048;-80
2022/10/16 05:00:18;;;;;;;8.68;4.97;;;;;;;13.75;46.96;101321.72;5024036;28;20052;-79
2022/10/16 05:02:44;;;;;;;8.25;5.40;;;;;;;14.49;45.95;101334.88;5011488;28;20048;-80
2022/10/16 05:05:11;;;;;;;8.77;5.60;;;;;;;15.24;44.22;101334.72;5012261;28;20055;-80
2022/10/16 05:07:37;;;;;;;9.80;5.75;;;;;;;15.61;42.85;101303.09;5043050;28;20127;-80
2022/10/16 05:10:04;;;;;;;8.65;5.53;;;;;;;16.23;41.47;101303.53;5043168;28;20144;-79
2022/10/16 05:12:30;;;;;;;8.40;5.60;;;;;;;16.97;40.66;101327.38;5030826;28;20546;-80
2022/10/16 05:14:58;;;;;;;9.10;5.97;;;;;;;17.19;39.21;101322.75;5032177;28;20045;-80
2022/10/16 05:17:27;;;;;;;10.35;5.72;;;;;;;17.68;38.74;101331.75;5045068;28;20037;-82
2022/10/16 05:19:52;;;;;;;8.95;5.50;;;;;;;18.33;37.58;101322.00;5028524;28;20049;-81
2022/10/16 05:22:19;;;;;;;7.10;5.45;;;;;;;19.30;36.57;101300.00;5028523;28;20041;-79
2022/10/16 05:24:45;;;;;;;7.47;5.50;;;;;;;19.98;34.33;101301.97;5042427;28;20132;-79
2022/10/16 05:27:18;;;;;;;13.48;5.70;;;;;;;20.54;33.54;101302.34;5011127;28;20043;-79
2022/10/16 05:29:48;;;;;;;6.60;5.10;;;;;;;21.28;32.47;101297.66;5024876;28;20132;-79
2022/10/16 05:32:18;;;;;;;6.88;5.18;;;;;;;21.96;31.47;101315.88;5012687;28;20403;-81
2022/10/16 05:34:48;;;;;;;7.65;5.70;;;;;;;22.36;30.42;101306.59;5027330;28;20037;-82
2022/10/16 05:37:14;;;;;;;8.65;5.22;;;;;;;22.27;29.92;101248.59;5046020;28;20098;-79
2022/10/16 05:39:40;;;;;;;7.00;5.22;;;;;;;23.05;28.71;101285.59;5012499;28;20050;-81
2022/10/16 05:42:18;;;;;;;7.90;5.00;;;;;;;22.79;27.82;101176.91;5013050;28;20590;-81
2022/10/16 05:44:47;;;;;;;9.45;5.18;;;;;;;24.10;27.56;101323.19;5015384;28;20056;-81
2022/10/16 05:47:21;;;;;;;6.63;5.32;;;;;;;24.10;26.83;101262.88;5013747;28;20116;-79
2022/10/16 05:49:47;;;;;;;9.60;4.68;;;;;;;24.48;26.53;101271.00;5025945;28;20493;-82
2022/10/16 05:52:22;;;;;;;7.30;4.75;;;;;;;24.73;25.97;101253.09;5013635;28;20037;-81
2022/10/16 05:55:04;;;;;;;5.55;4.22;;;;;;;25.56;25.22;101280.34;5027536;28;20052;-80
2022/10/16 05:57:31;;;;;;;6.18;4.53;;;;;;;26.33;24.04;101297.00;5027427;28;20663;-81
2022/10/16 06:00:16;;;;;;;6.50;4.20;;;;;;;26.68;23.45;101277.41;5025553;28;20046;-81
2022/10/16 06:03:06;;;;;;;8.25;4.60;;;;;;;27.12;23.11;101242.09;5007392;28;20052;-81
2022/10/16 06:05:45;;;;;;;6.75;3.97;;;;;;;28.00;22.18;101260.25;5009370;28;20448;-81
2022/10/16 06:08:14;;;;;;;6.90;3.78;;;;;;;28.76;21.44;101311.06;5027672;28;20045;-82
2022/10/16 06:10:41;;;;;;;9.30;4.32;;;;;;;28.50;20.84;101252.81;5029263;28;20099;-81
2022/10/16 06:13:37;;;;;;;7.22;4.07;;;;;;;28.70;19.82;101199.84;5008227;28;20042;-80
2022/10/16 06:16:12;;;;;;;9.63;4.10;;;;;;;29.58;19.63;101263.03;5004075;28;20053;-83
2022/10/16 06:18:42;;;;;;;5.60;3.90;;;;;;;29.34;18.75;101195.78;5030265;28;20069;-80
2022/10/16 06:21:12;;;;;;;7.70;4.43;;;;;;;29.30;19.03;101243.34;5027412;28;20065;-81
2022/10/16 06:23:41;;;;;;;6.03;4.43;;;;;;;29.30;18.72;101211.19;5023326;28;20042;-83
2022/10/16 06:26:15;;;;;;;7.85;4.88;;;;;;;29.49;18.96;101228.75;5013297;28;20500;-83
2022/10/16 06:28:58;;;;;;;8.18;4.30;;;;;;;29.76;18.18;101193.91;4995527;28;20424;-82
2022/10/16 06:31:43;;;;;;;;;;;;;;;;;;;;;
2022/10/16 06:35:24;;;;;;;8.40;4.15;;;;;;;30.42;17.35;101211.75;5028530;28;20099;-81
2022/10/16 06:38:14;;;;;;;6.88;3.92;;;;;;;30.71;17.64;101303.69;5016145;28;20045;-82
2022/10/16 06:41:06;;;;;;;7.72;4.22;;;;;;;30.13;17.07;101321.97;5018960;28;20115;-81
2022/10/16 06:43:58;;;;;;;6.68;4.10;;;;;;;30.19;16.84;101281.31;5021045;28;20060;-82
2022/10/16 06:46:59;;;;;;;9.00;4.97;;;;;;;29.74;16.98;101266.38;5027551;28;20038;-80
2022/10/16 06:50:23;;;;;;;7.75;4.40;;;;;;;30.67;16.51;101326.38;5029239;28;20491;-85
2022/10/16 06:52:52;;;;;;;6.60;4.40;;;;;;;30.61;16.72;101248.94;5030811;28;20045;-79
2022/10/16 06:55:18;;;;;;;7.80;4.35;;;;;;;30.94;16.47;101191.91;5026815;28;20048;-78
2022/10/16 06:58:20;;;;;;;7.13;4.47;;;;;;;32.14;15.69;101320.25;4999556;28;20508;-87
2022/10/16 07:00:57;;;;;;;6.85;4.50;;;;;;;32.09;15.43;101263.22;5035778;28;20044;-81
2022/10/16 07:03:26;;;;;;;6.25;4.70;;;;;;;32.59;14.73;101301.50;5012463;28;20047;-79
2022/10/16 07:06:10;;;;;;;6.10;4.38;;;;;;;32.15;14.84;101204.38;5018734;28;20068;-82
2022/10/16 07:08:51;;;;;;;7.72;4.68;;;;;;;32.87;14.78;101309.25;5005586;28;20048;-82
2022/10/16 07:11:26;;;;;;;7.28;4.30;;;;;;;33.03;14.74;101255.81;5021053;28;20056;-82
2022/10/16 07:14:21;;;;;;;7.55;4.53;;;;;;;33.41;14.07;101277.09;5040551;28;20041;-85
2022/10/16 07:16:48;;;;;;;6.60;4.50;;;;;;;33.96;13.84;101322.03;5037307;28;20068;-81
2022/10/16 07:19:55;;;;;;;5.88;4.30;;;;;;;33.42;13.20;101200.59;5020774;28;20047;-82
2022/10/16 07:22:35;;;;;;;8.60;4.45;;;;;;;34.30;13.58;101246.25;5034489;28;20540;-84
2022/10/16 07:25:22;;;;;;;8.68;4.43;;;;;;;34.43;12.80;101229.84;5025258;28;20032;-83
2022/10/16 07:27:55;;;;;;;9.65;4.55;;;;;;;34.75;13.12;101210.78;5021979;28;20455;-80
2022/10/16 07:31:11;;;;;;;12.77;4.75;;;;;;;35.66;12.44;101214.31;5052175;28;20041;-80
2022/10/16 07:34:03;;;;;;;7.50;4.25;;;;;;;35.93;12.42;101262.25;4953919;28;20150;-84
2022/10/16 07:37:05;;;;;;;7.50;4.00;;;;;;;36.42;11.87;101245.91;4957929;28;20035;-80
2022/10/16 07:39:35;;;;;;;7.95;4.45;;;;;;;36.01;12.41;101265.16;5000733;28;20103;-80
2022/10/16 07:42:02;;;;;;;7.35;4.53;;;;;;;36.46;12.21;101309.66;5030276;28;20056;-79
2022/10/16 07:44:28;;;;;;;6.75;4.55;;;;;;;36.54;11.79;101327.06;5029648;28;20064;-82
2022/10/16 07:46:54;;;;;;;7.70;4.43;;;;;;;36.11;11.83;101321.13;5039532;28;20501;-84
2022/10/16 07:49:50;;;;;;;9.35;5.10;;;;;;;35.79;12.43;101330.38;5042909;28;20056;-83
2022/10/16 07:52:23;;;;;;;8.70;4.75;;;;;;;36.11;11.90;101248.88;5036630;28;20037;-80
2022/10/16 07:54:49;;;;;;;6.18;4.63;;;;;;;37.25;11.69;101322.91;5036036;28;20063;-81
2022/10/16 07:57:21;;;;;;;15.38;5.15;;;;;;;36.10;11.54;101243.59;5033717;28;20128;-79
2022/10/16 07:59:47;;;;;;;8.23;4.05;;;;;;;36.29;11.44;101322.09;5017361;28;20041;-82
2022/10/16 08:02:17;;;;;;;6.55;4.15;;;;;;;36.87;11.96;101322.94;5034903;28;20492;-82
2022/10/16 08:04:47;;;;;;;7.68;4.80;;;;;;;37.06;11.11;101315.72;5036233;28;20136;-84
2022/10/16 08:07:13;;;;;;;7.93;4.45;;;;;;;36.87;11.38;101298.53;5018090;28;20093;-82
2022/10/16 08:09:43;;;;;;;7.38;4.65;;;;;;;37.07;11.10;101310.16;5017150;28;20135;-81
2022/10/16 08:12:40;;;;;;;7.10;4.03;;;;;;;37.05;10.72;101236.22;5032676;28;20085;-80
2022/10/16 08:15:06;;;;;;;6.85;4.47;;;;;;;37.36;10.68;101324.53;5008362;28;20063;-80
2022/10/16 08:17:43;;;;;;;6.50;4.65;;;;;;;36.93;11.15;101306.06;5028367;28;20037;-82
2022/10/16 08:23:41;;;;;;;6.85;4.13;;;;;;;37.21;10.94;101250.97;5018370;28;20080;-80
2022/10/16 08:26:48;;;;;;;8.15;4.53;;;;;;;38.18;10.87;101323.59;5039084;28;20041;-82
2022/10/16 08:29:23;;;;;;;13.70;4.10;;;;;;;38.30;10.22;101322.31;5034620;28;20041;-82
2022/10/16 08:31:55;;;;;;;9.35;4.07;;;;;;;37.71;10.56;101227.84;5034698;28;20046;-84
2022/10/16 08:34:53;;;;;;;7.13;4.40;;;;;;;37.48;10.07;101212.06;4996987;28;20038;-84
2022/10/16 08:37:19;;;;;;;6.28;4.22;;;;;;;37.56;10.35;101259.28;4998533;28;20089;-85
2022/10/16 08:39:48;;;;;;;5.90;4.13;;;;;;;37.53;10.02;101200.72;5018285;28;20054;-81
2022/10/16 08:42:49;;;;;;;7.15;4.30;;;;;;;38.08;10.53;101288.41;5026958;28;20049;-83
2022/10/16 08:45:56;;;;;;;9.18;4.50;;;;;;;38.37;10.12;101312.56;5046047;28;20522;-84
2022/10/16 08:49:07;;;;;;;6.93;4.00;;;;;;;37.98;10.27;101312.94;5024758;28;20044;-82
2022/10/16 08:51:37;;;;;;;4.63;3.63;;;;;;;37.52;10.50;101251.47;4949837;28;20045;-81
2022/10/16 08:54:48;;;;;;;7.18;3.60;;;;;;;37.33;10.27;101282.28;5032110;28;20056;-89
2022/10/16 08:57:25;;;;;;;3.58;3.28;;;;;;;37.20;10.31;101254.69;5031542;28;20049;-83
2022/10/16 09:00:13;;;;;;;6.85;3.58;;;;;;;36.85;10.48;101295.09;5001097;28;20157;-83
2022/10/16 09:03:02;;;;;;;6.63;3.75;;;;;;;36.58;10.74;101283.25;5026438;28;20041;-80
2022/10/16 09:06:10;;;;;;;5.60;3.33;;;;;;;37.60;10.92;101298.69;5036071;28;20037;-83
2022/10/16 09:09:21;;;;;;;8.50;4.10;;;;;;;37.19;10.70;101308.06;5044251;28;20093;-83
2022/10/16 09:12:19;;;;;;;7.20;3.90;;;;;;;36.79;11.09;101290.28;5045630;28;20059;-85
2022/10/16 09:15:54;;;;;;;6.60;3.88;;;;;;;37.84;10.12;101295.31;5022189;28;20037;-83
2022/10/16 09:19:06;;;;;;;10.13;3.80;;;;;;;38.23;9.81;101307.69;4970002;28;20057;-81
2022/10/16 09:21:45;;;;;;;10.95;3.75;;;;;;;37.37;10.19;101271.97;5021733;28;20077;-81
2022/10/16 09:24:19;;;;;;;10.55;4.40;;;;;;;36.81;9.77;101280.13;5018976;28;20060;-82
2022/10/16 09:26:47;;;;;;;9.27;3.60;;;;;;;36.59;10.34;101268.69;5031636;28;20033;-81
2022/10/16 09:29:15;;;;;;;7.85;4.32;;;;;;;35.82;10.43;101273.25;5014836;28;20048;-83
2022/10/16 09:31:42;;;;;;;5.35;3.95;;;;;;;35.74;11.24;101301.91;5025461;28;20092;-83
2022/10/16 09:34:24;;;;;;;8.65;3.60;;;;;;;35.36;10.79;101287.31;5011550;28;20099;-80
2022/10/16 09:36:51;;;;;;;8.13;3.58;;;;;;;34.28;11.36;101245.53;5012702;28;20037;-83
2022/10/16 09:39:18;;;;;;;4.75;3.53;;;;;;;33.93;11.62;101290.78;5011815;28;20097;-80
2022/10/16 09:41:45;;;;;;;8.20;3.22;;;;;;;33.58;12.18;101267.59;5021651;28;20045;-81
2022/10/16 09:44:20;;;;;;;7.85;3.20;;;;;;;33.63;11.75;101271.63;5014615;28;20069;-80
2022/10/16 09:46:47;;;;;;;6.40;3.33;;;;;;;33.78;12.11;101280.25;5012884;28;20489;-78
2022/10/16 09:49:24;;;;;;;5.50;3.60;;;;;;;34.51;11.89;101276.81;5027762;28;20076;-83
2022/10/16 09:52:10;;;;;;;4.80;3.10;;;;;;;33.82;10.98;101240.38;5015584;28;20041;-81
2022/10/16 09:54:37;;;;;;;5.75;3.22;;;;;;;33.15;11.94;101293.56;5019057;28;20056;-79
2022/10/16 09:57:12;;;;;;;7.57;3.42;;;;;;;30.62;12.99;101261.41;5035962;28;20049;-79
2022/10/16 09:59:48;;;;;;;6.93;3.22;;;;;;;28.03;14.48;101283.28;5011769;28;20501;-80
2022/10/16 10:02:17;;;;;;;7.28;3.08;;;;;;;26.19;15.67;101295.03;5010098;28;20055;-79
2022/10/16 10:04:54;;;;;;;12.13;3.40;;;;;;;24.69;17.05;101313.56;5033233;28;20037;-81
2022/10/16 10:07:46;;;;;;;4.88;3.25;;;;;;;23.32;18.46;101304.94;5035227;28;20405;-80
2022/10/16 10:10:30;;;;;;;6.10;3.00;;;;;;;22.03;19.30;101308.59;5008971;28;20147;-81
2022/10/16 10:12:59;;;;;;;5.28;2.67;;;;;;;21.06;20.69;101322.09;5024245;28;20087;-79
2022/10/16 10:15:29;;;;;;;9.60;2.95;;;;;;;19.98;21.30;101294.06;5038685;28;20049;-82
2022/10/16 10:17:58;;;;;;;5.80;3.03;;;;;;;19.49;22.06;101318.91;5031657;28;20041;-82
2022/10/16 10:20:29;;;;;;;5.00;2.80;;;;;;;18.76;22.82;101317.72;5035621;28;20485;-81
2022/10/16 10:23:00;;;;;;;4.65;3.10;;;;;;;18.39;23.62;101334.22;5036052;28;20040;-81
2022/10/16 10:25:35;;;;;;;4.30;3.60;;;;;;;17.41;24.02;101260.19;5041079;28;20582;-82
2022/10/16 10:28:29;;;;;;;5.70;2.72;;;;;;;17.47;25.01;101327.66;5040455;28;20060;-80
2022/10/16 10:31:14;;;;;;;7.43;3.00;;;;;;;16.92;25.50;101281.81;5022762;28;20041;-81
2022/10/16 10:34:29;;;;;;;4.82;3.00;;;;;;;16.97;25.85;101333.53;5027916;28;20096;-81
2022/10/16 10:37:23;;;;;;;5.93;2.90;;;;;;;16.64;26.18;101330.31;5024721;28;20497;-80
2022/10/16 10:40:03;;;;;;;3.78;2.55;;;;;;;15.71;27.00;101223.41;5004445;28;20045;-82
2022/10/16 10:42:57;;;;;;;5.80;2.78;;;;;;;16.17;27.26;101335.13;5020459;28;20136;-82
2022/10/16 10:45:51;;;;;;;5.03;2.40;;;;;;;15.49;27.83;101262.06;5012799;28;20045;-82
2022/10/16 10:48:51;;;;;;;4.88;2.40;;;;;;;15.49;28.38;101268.16;5022474;28;20076;-82
2022/10/16 10:51:49;;;;;;;4.00;2.40;;;;;;;15.04;28.18;101207.22;5035885;28;20061;-79
2022/10/16 10:54:36;;;;;;;5.60;3.25;;;;;;;15.61;28.53;101330.19;5044312;28;20069;-79
2022/10/16 10:57:29;;;;;;;5.30;2.55;;;;;;;15.32;28.87;101336.47;5006644;28;20072;-81
2022/10/16 11:00:02;;;;;;;5.13;2.75;;;;;;;15.17;29.29;101313.78;5030716;28;20045;-81
2022/10/16 11:02:50;;;;;;;5.53;2.30;;;;;;;13.89;29.69;101144.72;5019366;28;20045;-83
2022/10/16 11:05:41;;;;;;;4.32;2.40;;;;;;;14.91;29.94;101333.09;5038068;28;20067;-79
2022/10/16 11:08:22;;;;;;;5.38;2.47;;;;;;;14.80;30.32;101329.59;5021098;28;20042;-82
2022/10/16 11:11:03;;;;;;;8.63;2.72;;;;;;;14.73;30.56;101323.50;4989153;28;20138;-80
2022/10/16 11:13:55;;;;;;;5.63;2.50;;;;;;;14.65;30.68;101326.97;5018039;28;20144;-79
2022/10/16 11:16:36;;;;;;;3.45;2.25;;;;;;;14.39;30.95;101305.19;5034551;28;20040;-80
2022/10/16 11:19:42;;;;;;;7.18;2.20;;;;;;;13.77;31.43;101236.25;5023666;28;20033;-80
2022/10/16 11:22:25;;;;;;;3.75;2.35;;;;;;;13.91;31.83;101286.84;5034093;28;20538;-82
2022/10/16 11:25:03;;;;;;;;;;;;;;;14.05;31.80;101323.50;5027758;28;21281;-78
2022/10/16 11:27:55;;;;;;;6.13;2.28;;;;;;;14.00;32.13;101320.03;5034762;28;19928;-81
2022/10/16 11:30:26;;;;;;;6.43;2.92;;;;;;;13.96;32.10;101313.03;5037911;28;20049;-83
2022/10/16 11:33:08;;;;;;;5.53;2.28;;;;;;;13.87;32.43;101313.91;5022321;28;20112;-82
2022/10/16 11:35:58;;;;;;;6.55;3.05;;;;;;;13.79;32.75;101319.09;5043185;28;20045;-78
2022/10/16 11:38:34;;;;;;;6.97;2.63;;;;;;;13.63;33.08;101314.72;5047950;28;20153;-80
2022/10/16 11:41:09;;;;;;;7.50;2.70;;;;;;;13.44;33.32;101291.13;5045437;28;20059;-81
2022/10/16 11:43:43;;;;;;;5.60;2.80;;;;;;;13.29;33.61;101288.44;5045799;28;20049;-79
2022/10/16 11:46:24;;;;;;;7.50;3.10;;;;;;;13.19;33.66;101298.84;5063167;28;20041;-81
2022/10/16 11:49:21;;;;;;;3.70;2.13;;;;;;;12.82;33.68;101243.81;5041319;28;20043;-81
2022/10/16 11:52:03;;;;;;;;;;;;;;;13.26;34.00;101310.19;5054907;28;20882;-83
2022/10/16 11:54:41;;;;;;;5.70;2.50;;;;;;;13.10;33.92;101284.00;5044070;28;19928;-80
2022/10/16 11:57:19;;;;;;;5.70;2.15;;;;;;;12.98;33.90;101280.47;5024367;28;20155;-79
2022/10/16 12:00:03;;;;;;;4.13;2.33;;;;;;;13.08;34.34;101313.63;5053717;28;20553;-82
2022/10/16 12:02:50;;;;;;;6.55;3.22;;;;;;;13.00;34.59;101307.47;5038269;28;20080;-79
2022/10/16 12:05:31;;;;;;;4.15;2.63;;;;;;;12.92;34.66;101310.91;5023781;28;20037;-80
2022/10/16 12:08:15;;;;;;;8.25;2.88;;;;;;;12.85;34.70;101298.69;5036398;28;20049;-80
2022/10/16 12:10:48;;;;;;;5.00;2.45;;;;;;;12.70;34.97;101268.13;5045139;28;20120;-81
2022/10/16 12:13:34;;;;;;;4.95;2.20;;;;;;;12.83;35.31;101303.03;5046202;28;20068;-83
2022/10/16 12:16:12;;;;;;;5.43;2.30;;;;;;;12.76;35.23;101304.75;5026893;28;20067;-80